createdAt,value
2023-01-18T00:01:20.499Z,93343.44
2023-01-18T00:03:47.570Z,93340.16
2023-01-18T00:06:14.359Z,93333.25
2023-01-18T00:08:42.436Z,93336.91
2023-01-18T00:11:12.514Z,93326.81
2023-01-18T00:13:39.846Z,93298.19
2023-01-18T00:16:19.156Z,93363.69
2023-01-18T00:18:53.953Z,93325.25
2023-01-18T00:21:21.013Z,93274.25
2023-01-18T00:23:47.646Z,93280.00
2023-01-18T00:26:14.444Z,93331.25
2023-01-18T00:28:41.541Z,93349.56
2023-01-18T00:31:15.761Z,93312.75
2023-01-18T00:33:44.104Z,93358.50
2023-01-18T00:36:11.805Z,93329.44
2023-01-18T00:38:38.481Z,93320.91
2023-01-18T00:41:05.242Z,93362.28
2023-01-18T00:43:40.865Z,93322.97
2023-01-18T00:46:10.305Z,93302.72
2023-01-18T00:48:38.890Z,93358.91
2023-01-18T00:51:06.834Z,93255.03
2023-01-18T00:53:33.419Z,93262.44
2023-01-18T00:56:00.099Z,93326.81
2023-01-18T00:58:26.695Z,93303.50
2023-01-18T01:00:53.816Z,93287.88
2023-01-18T01:03:21.487Z,93310.81
2023-01-18T01:06:06.972Z,93290.06
2023-01-18T01:08:34.375Z,93294.31
2023-01-18T01:11:08.017Z,93237.63
2023-01-18T01:13:53.684Z,93270.41
2023-01-18T01:16:39.394Z,93288.25
2023-01-18T01:19:24.792Z,93303.91
2023-01-18T01:22:09.917Z,93280.19
2023-01-18T01:24:55.587Z,93304.81
2023-01-18T01:27:22.321Z,93248.03
2023-01-18T01:29:48.919Z,93290.31
2023-01-18T01:32:15.600Z,93294.97
2023-01-18T01:34:42.246Z,93199.59
2023-01-18T01:37:08.932Z,93287.91
2023-01-18T01:39:35.716Z,93246.00
2023-01-18T01:42:02.471Z,93288.16
2023-01-18T01:44:34.265Z,93280.22
2023-01-18T01:47:10.332Z,93292.94
2023-01-18T01:49:41.093Z,93314.84
2023-01-18T01:52:11.419Z,93300.66
2023-01-18T01:55:21.108Z,93264.91
2023-01-18T01:57:57.673Z,93315.41
2023-01-18T02:00:25.287Z,93278.59
2023-01-18T02:03:00.708Z,93286.66
2023-01-18T02:05:29.866Z,93309.59
2023-01-18T02:07:59.848Z,93299.00
2023-01-18T02:10:27.035Z,93298.97
2023-01-18T02:12:55.127Z,93307.16
2023-01-18T02:15:27.783Z,93291.63
2023-01-18T02:18:40.922Z,93313.19
2023-01-18T02:21:16.200Z,93311.78
2023-01-18T02:23:46.012Z,93317.53
2023-01-18T02:26:21.809Z,93313.09
2023-01-18T02:29:15.089Z,93324.03
2023-01-18T02:32:43.594Z,93286.47
2023-01-18T02:35:15.638Z,93258.44
2023-01-18T02:38:05.716Z,93302.94
2023-01-18T02:41:16.757Z,93255.44
2023-01-18T02:44:04.262Z,93324.84
2023-01-18T02:46:35.811Z,93313.66
2023-01-18T02:49:05.462Z,93316.09
2023-01-18T02:51:32.450Z,93323.16
2023-01-18T02:54:00.425Z,93316.78
2023-01-18T02:56:27.044Z,93325.03
2023-01-18T02:59:17.720Z,93339.97
2023-01-18T03:01:53.748Z,93298.78
2023-01-18T03:04:33.550Z,93325.38
2023-01-18T03:07:17.738Z,93338.38
2023-01-18T03:09:45.039Z,93334.19
2023-01-18T03:12:46.248Z,93339.66
2023-01-18T03:15:22.355Z,93341.91
2023-01-18T03:17:55.184Z,93349.38
2023-01-18T03:20:25.940Z,93279.59
2023-01-18T03:23:25.032Z,93333.00
2023-01-18T03:25:56.292Z,93322.66
2023-01-18T03:28:47.282Z,93324.47
2023-01-18T03:31:40.452Z,93335.41
2023-01-18T03:34:28.667Z,93323.50
2023-01-18T03:37:00.141Z,93314.56
2023-01-18T03:39:34.027Z,93299.03
2023-01-18T03:42:03.969Z,93300.91
2023-01-18T03:44:42.256Z,93291.81
2023-01-18T03:47:09.131Z,93288.91
2023-01-18T03:49:36.375Z,93236.72
2023-01-18T03:52:17.160Z,93291.78
2023-01-18T03:54:59.712Z,93229.09
2023-01-18T03:57:41.422Z,93289.34
2023-01-18T04:00:10.139Z,93260.81
2023-01-18T04:02:37.541Z,93230.13
2023-01-18T04:05:05.840Z,93252.16
2023-01-18T04:07:32.972Z,93245.16
2023-01-18T04:10:00.442Z,93287.50
2023-01-18T04:12:27.293Z,93244.81
2023-01-18T04:14:54.018Z,93236.31
2023-01-18T04:17:20.825Z,93237.81
2023-01-18T04:19:47.397Z,93249.22
2023-01-18T04:22:14.705Z,93290.41
2023-01-18T04:24:41.308Z,93298.22
2023-01-18T04:27:08.114Z,93284.59
2023-01-18T04:29:34.819Z,93256.66
2023-01-18T04:32:01.455Z,93257.50
2023-01-18T04:34:28.283Z,93264.91
2023-01-18T04:36:55.247Z,93234.16
2023-01-18T04:39:21.882Z,93228.31
2023-01-18T04:41:48.615Z,93239.44
2023-01-18T04:44:16.086Z,93246.19
2023-01-18T04:46:43.054Z,93258.59
2023-01-18T04:49:15.554Z,93249.06
2023-01-18T04:51:43.956Z,93217.59
2023-01-18T04:54:11.791Z,93221.75
2023-01-18T04:56:39.487Z,93225.53
2023-01-18T04:59:06.343Z,93204.16
2023-01-18T05:01:33.717Z,93202.28
2023-01-18T05:04:01.717Z,93195.22
2023-01-18T05:06:28.397Z,93197.50
2023-01-18T05:08:55.131Z,93200.91
2023-01-18T05:11:23.452Z,93198.41
2023-01-18T05:13:50.220Z,93187.25
2023-01-18T05:16:22.041Z,93222.25
2023-01-18T05:18:49.164Z,93197.28
2023-01-18T05:21:16.068Z,93164.13
2023-01-18T05:23:42.895Z,93165.81
2023-01-18T05:26:18.807Z,93216.34
2023-01-18T05:28:45.923Z,93247.69
2023-01-18T05:31:14.099Z,93202.53
2023-01-18T05:33:41.109Z,93207.50
2023-01-18T05:36:08.158Z,93182.72
2023-01-18T05:38:34.808Z,93237.84
2023-01-18T05:41:01.772Z,93238.59
2023-01-18T05:43:29.120Z,93218.69
2023-01-18T05:45:56.096Z,93239.78
2023-01-18T05:48:24.162Z,93249.31
2023-01-18T05:50:51.082Z,93150.59
2023-01-18T05:53:20.362Z,93257.00
2023-01-18T05:56:00.569Z,93259.50
2023-01-18T05:58:27.972Z,93261.28
2023-01-18T06:00:55.360Z,93227.34
2023-01-18T06:03:22.999Z,93255.44
2023-01-18T06:05:51.552Z,93209.16
2023-01-18T06:08:19.009Z,93217.84
2023-01-18T06:10:55.568Z,93188.88
2023-01-18T06:13:23.407Z,93270.16
2023-01-18T06:15:50.227Z,93271.78
2023-01-18T06:18:16.918Z,93258.97
2023-01-18T06:20:43.690Z,93207.75
2023-01-18T06:23:10.451Z,93233.63
2023-01-18T06:25:37.245Z,93271.88
2023-01-18T06:28:05.322Z,93247.25
2023-01-18T06:30:32.917Z,93264.06
2023-01-18T06:33:04.862Z,93305.19
2023-01-18T06:35:31.765Z,93220.41
2023-01-18T06:37:59.054Z,93177.75
2023-01-18T06:40:26.121Z,93223.53
2023-01-18T06:42:52.814Z,93177.47
2023-01-18T06:45:22.112Z,93268.75
2023-01-18T06:47:49.682Z,93226.09
2023-01-18T06:50:17.291Z,93285.31
2023-01-18T06:52:45.026Z,93288.84
2023-01-18T06:55:13.335Z,93208.59
2023-01-18T06:57:40.115Z,93278.00
2023-01-18T07:00:08.510Z,93275.31
2023-01-18T07:02:36.460Z,93242.72
2023-01-18T07:05:03.929Z,93262.03
2023-01-18T07:07:31.093Z,93235.34
2023-01-18T07:09:57.816Z,93213.31
2023-01-18T07:12:24.441Z,93239.97
2023-01-18T07:14:52.503Z,93260.75
2023-01-18T07:17:19.274Z,93217.66
2023-01-18T07:19:46.018Z,93275.50
2023-01-18T07:22:13.581Z,93224.75
2023-01-18T07:24:40.161Z,93225.22
2023-01-18T07:27:07.109Z,93243.22
2023-01-18T07:29:33.800Z,93195.75
2023-01-18T07:32:01.247Z,93219.13
2023-01-18T07:34:27.998Z,93246.91
2023-01-18T07:36:54.853Z,93266.56
2023-01-18T07:39:22.012Z,93094.94
2023-01-18T07:41:48.793Z,93256.88
2023-01-18T07:44:15.959Z,93183.28
2023-01-18T07:46:43.309Z,93256.22
2023-01-18T07:49:10.026Z,93324.72
2023-01-18T07:51:36.829Z,93323.31
2023-01-18T07:54:03.658Z,93323.38
2023-01-18T07:56:30.807Z,93299.09
2023-01-18T07:58:57.449Z,93367.31
2023-01-18T08:01:25.002Z,93344.38
2023-01-18T08:03:53.652Z,93348.72
2023-01-18T08:06:25.211Z,93354.44
2023-01-18T08:08:52.889Z,93365.28
2023-01-18T08:11:19.743Z,93309.91
2023-01-18T08:13:48.907Z,93321.09
2023-01-18T08:16:16.297Z,93307.69
2023-01-18T08:18:45.336Z,93371.97
2023-01-18T08:21:13.626Z,93365.75
2023-01-18T08:23:41.001Z,93405.31
2023-01-18T08:26:09.086Z,93381.00
2023-01-18T08:28:36.210Z,93290.81
2023-01-18T08:31:12.718Z,93418.34
2023-01-18T08:33:41.611Z,93353.78
2023-01-18T08:36:20.144Z,93431.59
2023-01-18T08:38:52.435Z,93366.38
2023-01-18T08:41:20.394Z,93407.91
2023-01-18T08:43:51.063Z,93400.34
2023-01-18T08:46:18.543Z,93316.19
2023-01-18T08:48:45.483Z,93370.16
2023-01-18T08:51:12.101Z,93460.84
2023-01-18T08:53:38.851Z,93279.88
2023-01-18T08:56:06.899Z,93416.56
2023-01-18T08:58:33.867Z,93409.00
2023-01-18T09:01:08.188Z,93429.41
2023-01-18T09:03:35.759Z,93399.88
2023-01-18T09:06:04.784Z,93378.88
2023-01-18T09:08:31.992Z,93451.81
2023-01-18T09:11:03.995Z,93464.91
2023-01-18T09:13:31.855Z,93496.31
2023-01-18T09:16:02.859Z,93491.47
2023-01-18T09:18:30.267Z,93441.19
2023-01-18T09:20:58.642Z,93485.84
2023-01-18T09:23:25.970Z,93478.31
2023-01-18T09:26:09.873Z,93474.84
2023-01-18T09:28:36.558Z,93495.16
2023-01-18T09:31:04.756Z,93485.47
2023-01-18T09:33:37.480Z,93459.25
2023-01-18T09:36:07.829Z,93502.25
2023-01-18T09:38:36.106Z,93457.25
2023-01-18T09:41:06.130Z,93464.06
2023-01-18T09:43:43.105Z,93445.88
2023-01-18T09:46:20.067Z,93450.38
2023-01-18T09:48:54.630Z,93470.25
2023-01-18T09:51:28.147Z,93463.09
2023-01-18T09:54:10.056Z,93486.47
2023-01-18T09:56:52.116Z,93452.69
2023-01-18T09:59:33.526Z,93488.69
2023-01-18T10:02:03.749Z,93463.44
2023-01-18T10:04:37.083Z,93487.25
2023-01-18T10:07:12.147Z,93503.97
2023-01-18T10:09:46.409Z,93502.53
2023-01-18T10:12:27.942Z,93494.91
2023-01-18T10:15:02.180Z,93485.25
2023-01-18T10:17:42.038Z,93473.47
2023-01-18T10:20:20.794Z,93478.56
2023-01-18T10:23:31.665Z,93483.09
2023-01-18T10:26:26.353Z,93484.38
2023-01-18T10:29:27.339Z,93500.84
2023-01-18T10:32:11.025Z,93497.59
2023-01-18T10:34:44.104Z,93472.16
2023-01-18T10:37:40.317Z,93505.47
2023-01-18T10:40:10.403Z,93515.50
2023-01-18T10:42:40.383Z,93489.03
2023-01-18T10:45:34.989Z,93510.59
2023-01-18T10:48:32.237Z,93545.63
2023-01-18T10:51:05.956Z,93525.00
2023-01-18T10:53:39.864Z,93446.84
2023-01-18T10:56:16.464Z,93524.31
2023-01-18T10:58:46.272Z,93551.47
2023-01-18T11:01:21.264Z,93537.31
2023-01-18T11:03:53.103Z,93502.91
2023-01-18T11:06:21.122Z,93468.94
2023-01-18T11:08:49.594Z,93549.91
2023-01-18T11:11:18.149Z,93552.84
2023-01-18T11:13:47.199Z,93551.81
2023-01-18T11:16:18.347Z,93530.38
2023-01-18T11:18:56.578Z,93541.00
2023-01-18T11:21:24.818Z,93508.47
2023-01-18T11:23:53.025Z,93534.25
2023-01-18T11:26:23.500Z,93545.53
2023-01-18T11:29:05.401Z,93531.50
2023-01-18T11:31:49.773Z,93524.25
2023-01-18T11:34:30.471Z,93540.81
2023-01-18T11:36:58.415Z,93486.72
2023-01-18T11:39:36.277Z,93510.19
2023-01-18T11:42:13.927Z,93565.66
2023-01-18T11:44:48.484Z,93532.38
2023-01-18T11:47:45.536Z,93548.72
2023-01-18T11:50:28.482Z,93566.38
2023-01-18T11:53:15.033Z,93568.47
2023-01-18T11:55:56.026Z,93598.50
2023-01-18T11:58:29.427Z,93594.28
2023-01-18T12:01:24.835Z,93597.03
2023-01-18T12:04:06.530Z,93570.97
2023-01-18T12:06:49.216Z,93607.44
2023-01-18T12:09:40.228Z,93592.22
2023-01-18T12:12:28.186Z,93605.66
2023-01-18T12:15:09.670Z,93589.47
2023-01-18T12:17:58.641Z,93599.78
2023-01-18T12:21:23.811Z,93598.56
2023-01-18T12:24:09.063Z,93584.63
2023-01-18T12:26:47.968Z,93596.97
2023-01-18T12:29:45.628Z,93613.13
2023-01-18T12:32:44.821Z,93617.69
2023-01-18T12:35:23.628Z,93633.25
2023-01-18T12:38:05.477Z,93589.78
2023-01-18T12:40:48.656Z,93598.75
2023-01-18T12:43:32.400Z,93611.38
2023-01-18T12:46:07.254Z,93630.13
2023-01-18T12:48:56.953Z,93621.16
2023-01-18T12:51:28.010Z,93619.88
2023-01-18T12:54:10.852Z,93600.53
2023-01-18T12:56:43.454Z,93620.34
2023-01-18T12:59:20.312Z,93631.63
2023-01-18T13:01:53.000Z,93612.56
2023-01-18T13:04:25.212Z,93609.53
2023-01-18T13:06:59.873Z,93640.59
2023-01-18T13:09:33.456Z,93654.84
2023-01-18T13:12:05.893Z,93647.06
2023-01-18T13:15:14.156Z,93644.25
2023-01-18T13:17:51.945Z,93631.13
2023-01-18T13:20:40.771Z,93655.75
2023-01-18T13:23:32.263Z,93693.63
2023-01-18T13:26:21.892Z,93676.22
2023-01-18T13:28:48.541Z,93707.41
2023-01-18T13:31:15.960Z,93689.09
2023-01-18T13:33:47.873Z,93671.38
2023-01-18T13:36:21.770Z,93657.53
2023-01-18T13:38:58.309Z,93698.28
2023-01-18T13:41:27.473Z,93700.81
2023-01-18T13:44:03.127Z,93712.00
2023-01-18T13:46:32.995Z,93680.13
2023-01-18T13:49:02.547Z,93673.53
2023-01-18T13:51:41.281Z,93714.47
2023-01-18T13:54:10.214Z,93686.56
2023-01-18T13:56:38.162Z,93721.44
2023-01-18T13:59:18.658Z,93739.31
2023-01-18T14:01:50.879Z,93734.09
2023-01-18T14:04:33.204Z,93744.06
2023-01-18T14:07:02.379Z,93763.94
2023-01-18T14:09:34.426Z,93771.34
2023-01-18T14:12:01.117Z,93762.81
2023-01-18T14:14:34.456Z,93771.88
2023-01-18T14:17:17.037Z,93770.09
2023-01-18T14:19:52.244Z,93785.44
2023-01-18T14:22:37.052Z,93782.78
2023-01-18T14:25:31.556Z,93720.00
2023-01-18T14:28:22.683Z,93788.56
2023-01-18T14:30:49.866Z,93798.56
2023-01-18T14:33:45.694Z,93779.19
2023-01-18T14:36:35.725Z,93804.78
2023-01-18T14:39:17.722Z,93807.88
2023-01-18T14:41:48.062Z,93808.59
2023-01-18T14:44:24.859Z,93793.91
2023-01-18T14:46:55.352Z,93801.44
2023-01-18T14:49:29.113Z,93776.94
2023-01-18T14:51:56.711Z,93783.63
2023-01-18T14:54:24.993Z,93797.25
2023-01-18T14:56:59.589Z,93804.91
2023-01-18T14:59:29.697Z,93814.19
2023-01-18T15:02:02.300Z,93809.91
2023-01-18T15:04:31.655Z,93811.16
2023-01-18T15:07:03.942Z,93813.44
2023-01-18T15:09:37.347Z,93807.19
2023-01-18T15:12:11.953Z,93809.44
2023-01-18T15:14:44.713Z,93798.94
2023-01-18T15:17:21.484Z,93807.44
2023-01-18T15:19:53.077Z,93812.94
2023-01-18T15:22:24.790Z,93826.13
2023-01-18T15:24:51.474Z,93817.72
2023-01-18T15:27:20.007Z,93817.28
2023-01-18T15:29:55.401Z,93815.28
2023-01-18T15:32:25.221Z,93803.56
2023-01-18T15:34:54.344Z,93817.75
2023-01-18T15:37:30.271Z,93815.13
2023-01-18T15:39:57.777Z,93830.47
2023-01-18T15:42:30.057Z,93812.22
2023-01-18T15:44:59.301Z,93799.41
2023-01-18T15:47:32.784Z,93812.06
2023-01-18T15:50:01.734Z,93839.34
2023-01-18T15:52:43.750Z,93799.78
2023-01-18T15:55:26.146Z,93798.47
2023-01-18T15:58:05.632Z,93806.13
2023-01-18T16:00:57.034Z,93815.09
2023-01-18T16:03:31.903Z,93816.38
2023-01-18T16:05:58.523Z,93819.59
2023-01-18T16:08:25.630Z,93821.44
2023-01-18T16:10:55.721Z,93784.78
2023-01-18T16:13:26.462Z,93833.91
2023-01-18T16:16:14.163Z,93834.19
2023-01-18T16:18:50.311Z,93838.97
2023-01-18T16:21:33.516Z,93825.66
2023-01-18T16:24:00.497Z,93849.00
2023-01-18T16:26:30.512Z,93842.44
2023-01-18T16:29:08.147Z,93850.03
2023-01-18T16:31:38.811Z,93830.53
2023-01-18T16:34:21.569Z,93801.34
2023-01-18T16:36:49.032Z,93815.09
2023-01-18T16:39:15.622Z,93838.19
2023-01-18T16:41:45.511Z,93848.88
2023-01-18T16:44:12.291Z,93846.25
2023-01-18T16:46:38.911Z,93845.97
2023-01-18T16:49:13.018Z,93845.94
2023-01-18T16:51:40.634Z,93837.59
2023-01-18T16:54:07.328Z,93840.50
2023-01-18T16:56:33.964Z,93840.81
2023-01-18T16:59:04.189Z,93836.09
2023-01-18T17:01:31.216Z,93831.06
2023-01-18T17:03:57.909Z,93830.75
2023-01-18T17:06:26.445Z,93834.09
2023-01-18T17:08:53.002Z,93828.78
2023-01-18T17:11:19.658Z,93804.72
2023-01-18T17:13:47.834Z,93844.41
2023-01-18T17:16:17.554Z,93823.31
2023-01-18T17:18:45.082Z,93845.09
2023-01-18T17:21:12.201Z,93824.56
2023-01-18T17:23:39.937Z,93839.84
2023-01-18T17:26:08.089Z,93854.13
2023-01-18T17:28:34.790Z,93860.25
2023-01-18T17:31:01.561Z,93851.75
2023-01-18T17:33:28.499Z,93861.88
2023-01-18T17:35:55.408Z,93858.16
2023-01-18T17:38:24.912Z,93862.34
2023-01-18T17:40:52.583Z,93868.34
2023-01-18T17:43:32.016Z,93843.16
2023-01-18T17:46:03.212Z,93842.84
2023-01-18T17:48:30.784Z,93848.03
2023-01-18T17:50:58.124Z,93791.66
2023-01-18T17:53:26.159Z,93864.06
2023-01-18T17:55:52.890Z,93876.28
2023-01-18T17:58:19.660Z,93893.69
2023-01-18T18:00:46.682Z,93870.28
2023-01-18T18:03:13.533Z,93881.75
2023-01-18T18:05:40.396Z,93875.53
2023-01-18T18:08:09.120Z,93862.16
2023-01-18T18:10:38.797Z,93880.56
2023-01-18T18:13:05.675Z,93876.19
2023-01-18T18:15:32.357Z,93895.63
2023-01-18T18:17:59.271Z,93897.75
2023-01-18T18:20:26.108Z,93905.81
2023-01-18T18:22:52.930Z,93891.81
2023-01-18T18:25:19.707Z,93908.72
2023-01-18T18:27:47.399Z,93906.03
2023-01-18T18:30:17.071Z,93911.50
2023-01-18T18:32:43.947Z,93888.00
2023-01-18T18:35:26.627Z,93928.78
2023-01-18T18:37:54.544Z,93920.63
2023-01-18T18:40:21.965Z,93938.97
2023-01-18T18:43:04.923Z,93920.56
2023-01-18T18:45:32.258Z,93943.94
2023-01-18T18:47:59.596Z,93893.28
2023-01-18T18:50:26.352Z,93938.47
2023-01-18T18:52:53.368Z,93929.00
2023-01-18T18:55:20.324Z,93926.34
2023-01-18T18:57:47.293Z,93939.03
2023-01-18T19:00:14.465Z,93946.03
2023-01-18T19:02:41.390Z,93920.41
2023-01-18T19:05:08.825Z,93945.31
2023-01-18T19:07:35.907Z,93939.38
2023-01-18T19:10:04.091Z,93924.75
2023-01-18T19:12:35.007Z,93930.97
2023-01-18T19:15:02.132Z,93881.03
2023-01-18T19:17:31.076Z,93923.50
2023-01-18T19:19:58.491Z,93933.19
2023-01-18T19:22:25.281Z,93939.94
2023-01-18T19:24:52.950Z,93932.97
2023-01-18T19:27:21.343Z,93949.63
2023-01-18T19:29:48.262Z,93934.97
2023-01-18T19:32:15.718Z,93945.41
2023-01-18T19:34:42.539Z,93931.97
2023-01-18T19:37:09.610Z,93929.00
2023-01-18T19:39:36.695Z,93920.81
2023-01-18T19:42:03.625Z,93933.97
2023-01-18T19:44:30.483Z,93927.53
2023-01-18T19:46:57.472Z,93936.25
2023-01-18T19:49:26.012Z,93967.53
2023-01-18T19:51:54.695Z,93916.56
2023-01-18T19:54:22.064Z,93957.81
2023-01-18T19:56:49.131Z,93984.88
2023-01-18T19:59:16.374Z,93977.44
2023-01-18T20:01:44.033Z,93969.78
2023-01-18T20:04:13.338Z,93982.94
2023-01-18T20:06:43.613Z,93995.34
2023-01-18T20:09:19.656Z,93978.66
2023-01-18T20:11:49.167Z,93973.47
2023-01-18T20:14:16.545Z,93975.97
2023-01-18T20:16:45.908Z,93975.00
2023-01-18T20:19:14.265Z,93969.03
2023-01-18T20:21:41.225Z,93962.56
2023-01-18T20:24:08.870Z,93977.72
2023-01-18T20:26:38.065Z,93971.50
2023-01-18T20:29:07.177Z,93969.53
2023-01-18T20:31:36.500Z,93985.44
2023-01-18T20:34:04.200Z,93968.03
2023-01-18T20:36:31.294Z,93957.09
2023-01-18T20:38:58.616Z,93932.50
2023-01-18T20:41:25.405Z,93962.81
2023-01-18T20:43:52.909Z,93941.44
2023-01-18T20:46:19.752Z,93961.78
2023-01-18T20:48:46.539Z,93947.88
2023-01-18T20:51:13.342Z,93970.53
2023-01-18T20:53:40.195Z,93941.44
2023-01-18T20:56:23.170Z,93970.75
2023-01-18T20:58:54.592Z,93983.16
2023-01-18T21:01:21.452Z,93987.38
2023-01-18T21:03:54.909Z,93969.91
2023-01-18T21:06:21.925Z,93970.88
2023-01-18T21:08:52.703Z,93968.34
2023-01-18T21:11:23.168Z,93966.88
2023-01-18T21:13:50.408Z,93951.00
2023-01-18T21:16:17.552Z,93952.44
2023-01-18T21:18:44.216Z,93955.72
2023-01-18T21:21:11.268Z,93946.75
2023-01-18T21:23:39.582Z,93932.50
2023-01-18T21:26:08.951Z,93958.31
2023-01-18T21:28:36.084Z,93948.66
2023-01-18T21:31:02.941Z,93937.97
2023-01-18T21:33:29.750Z,93942.91
2023-01-18T21:36:09.360Z,93919.09
2023-01-18T21:38:36.484Z,93919.81
2023-01-18T21:41:22.132Z,93894.00
2023-01-18T21:44:07.530Z,93899.22
2023-01-18T21:46:34.457Z,93893.97
2023-01-18T21:49:06.664Z,93846.56
2023-01-18T21:51:52.479Z,93863.66
2023-01-18T21:54:19.725Z,93844.81
2023-01-18T21:56:47.455Z,93877.53
2023-01-18T21:59:14.554Z,93896.63
2023-01-18T22:01:47.110Z,93894.13
2023-01-18T22:04:34.154Z,93907.56
2023-01-18T22:07:01.215Z,93891.31
2023-01-18T22:09:29.978Z,93893.25
2023-01-18T22:11:57.616Z,93863.78
2023-01-18T22:14:25.740Z,93859.34
2023-01-18T22:16:52.775Z,93881.69
2023-01-18T22:19:19.428Z,93858.66
2023-01-18T22:21:47.513Z,93882.22
2023-01-18T22:24:15.228Z,93856.38
2023-01-18T22:26:42.432Z,93890.44
2023-01-18T22:29:09.547Z,93882.66
2023-01-18T22:31:36.557Z,93867.94
2023-01-18T22:34:05.438Z,93872.56
2023-01-18T22:36:33.180Z,93848.56
2023-01-18T22:39:00.331Z,93839.09
2023-01-18T22:41:28.506Z,93854.91
2023-01-18T22:43:55.917Z,93851.41
2023-01-18T22:46:23.966Z,93850.16
2023-01-18T22:48:51.124Z,93837.38
2023-01-18T22:51:20.800Z,93849.06
2023-01-18T22:53:47.991Z,93847.63
2023-01-18T22:56:17.258Z,93858.13
2023-01-18T22:58:44.235Z,93828.53
2023-01-18T23:01:18.173Z,93841.53
2023-01-18T23:03:45.431Z,93836.84
2023-01-18T23:06:12.348Z,93838.38
2023-01-18T23:08:44.706Z,93846.53
2023-01-18T23:11:17.290Z,93826.44
2023-01-18T23:14:06.254Z,93833.81
2023-01-18T23:16:51.825Z,93824.88
2023-01-18T23:19:18.950Z,93817.66
2023-01-18T23:21:45.652Z,93823.66
2023-01-18T23:24:12.296Z,93831.38
2023-01-18T23:26:38.953Z,93837.06
2023-01-18T23:29:05.705Z,93815.00
2023-01-18T23:31:32.608Z,93831.59
2023-01-18T23:33:59.456Z,93783.34
2023-01-18T23:36:26.198Z,93758.41
2023-01-18T23:39:11.522Z,93804.34
2023-01-18T23:41:56.817Z,93798.78
2023-01-18T23:44:42.193Z,93792.38
2023-01-18T23:47:27.745Z,93782.63
2023-01-18T23:50:13.172Z,93804.81
2023-01-18T23:52:58.922Z,93741.22
2023-01-18T23:55:25.510Z,93789.88
2023-01-18T23:57:52.149Z,93804.06
